sensor_id;sensor_type;location;lat;lon;timestamp;pressure;altitude;pressure_sealevel;temperature
68127;BMP180;54931;52.098;21.006;2022-09-01T00:02:26;100769.60;;;12.70
68127;BMP180;54931;52.098;21.006;2022-09-01T00:04:54;100765.00;;;12.70
68127;BMP180;54931;52.098;21.006;2022-09-01T00:07:27;100763.20;;;12.70
68127;BMP180;54931;52.098;21.006;2022-09-01T00:10:04;100761.80;;;12.70
68127;BMP180;54931;52.098;21.006;2022-09-01T00:12:33;100764.00;;;12.60
68127;BMP180;54931;52.098;21.006;2022-09-01T00:15:01;100760.00;;;12.50
68127;BMP180;54931;52.098;21.006;2022-09-01T00:17:28;100759.40;;;12.40
68127;BMP180;54931;52.098;21.006;2022-09-01T00:19:56;100767.40;;;12.32
68127;BMP180;54931;52.098;21.006;2022-09-01T00:22:24;100763.20;;;12.30
68127;BMP180;54931;52.098;21.006;2022-09-01T00:24:51;100762.40;;;12.24
68127;BMP180;54931;52.098;21.006;2022-09-01T00:27:18;100760.60;;;12.20
68127;BMP180;54931;52.098;21.006;2022-09-01T00:29:46;100763.20;;;12.10
68127;BMP180;54931;52.098;21.006;2022-09-01T00:32:14;100767.40;;;12.00
68127;BMP180;54931;52.098;21.006;2022-09-01T00:34:41;100764.00;;;11.90
68127;BMP180;54931;52.098;21.006;2022-09-01T00:37:09;100757.20;;;11.80
68127;BMP180;54931;52.098;21.006;2022-09-01T00:39:36;100756.80;;;11.80
68127;BMP180;54931;52.098;21.006;2022-09-01T00:42:04;100756.00;;;11.70
68127;BMP180;54931;52.098;21.006;2022-09-01T00:44:31;100751.80;;;11.70
68127;BMP180;54931;52.098;21.006;2022-09-01T00:46:59;100753.40;;;11.70
68127;BMP180;54931;52.098;21.006;2022-09-01T00:49:39;100750.60;;;11.60
68127;BMP180;54931;52.098;21.006;2022-09-01T00:52:16;100750.40;;;11.60
68127;BMP180;54931;52.098;21.006;2022-09-01T00:54:50;100756.80;;;11.60
68127;BMP180;54931;52.098;21.006;2022-09-01T00:57:20;100755.40;;;11.50
68127;BMP180;54931;52.098;21.006;2022-09-01T01:00:05;100756.20;;;11.50
68127;BMP180;54931;52.098;21.006;2022-09-01T01:02:33;100757.00;;;11.48
68127;BMP180;54931;52.098;21.006;2022-09-01T01:05:01;100755.60;;;11.42
68127;BMP180;54931;52.098;21.006;2022-09-01T01:07:30;100748.40;;;11.40
68127;BMP180;54931;52.098;21.006;2022-09-01T01:09:59;100750.20;;;11.40
68127;BMP180;54931;52.098;21.006;2022-09-01T01:12:34;100752.00;;;11.30
68127;BMP180;54931;52.098;21.006;2022-09-01T01:15:08;100753.80;;;11.30
68127;BMP180;54931;52.098;21.006;2022-09-01T01:17:36;100752.00;;;11.20
68127;BMP180;54931;52.098;21.006;2022-09-01T01:20:06;100753.80;;;11.20
68127;BMP180;54931;52.098;21.006;2022-09-01T01:23:19;100756.00;;;11.10
68127;BMP180;54931;52.098;21.006;2022-09-01T01:25:55;100746.80;;;11.00
68127;BMP180;54931;52.098;21.006;2022-09-01T01:28:36;100748.00;;;10.86
68127;BMP180;54931;52.098;21.006;2022-09-01T01:31:09;100751.40;;;10.80
68127;BMP180;54931;52.098;21.006;2022-09-01T01:33:49;100744.40;;;10.70
68127;BMP180;54931;52.098;21.006;2022-09-01T01:36:31;100745.20;;;10.70
68127;BMP180;54931;52.098;21.006;2022-09-01T01:39:10;100745.80;;;10.70
68127;BMP180;54931;52.098;21.006;2022-09-01T01:41:40;100742.60;;;10.60
68127;BMP180;54931;52.098;21.006;2022-09-01T01:44:13;100745.20;;;10.60
68127;BMP180;54931;52.098;21.006;2022-09-01T01:46:47;100740.60;;;10.50
68127;BMP180;54931;52.098;21.006;2022-09-01T01:49:21;100740.00;;;10.50
68127;BMP180;54931;52.098;21.006;2022-09-01T01:51:53;100743.80;;;10.40
68127;BMP180;54931;52.098;21.006;2022-09-01T01:54:23;100744.20;;;10.40
68127;BMP180;54931;52.098;21.006;2022-09-01T01:56:51;100741.60;;;10.40
68127;BMP180;54931;52.098;21.006;2022-09-01T01:59:19;100738.80;;;10.40
68127;BMP180;54931;52.098;21.006;2022-09-01T02:01:46;100739.80;;;10.32
68127;BMP180;54931;52.098;21.006;2022-09-01T02:04:15;100734.40;;;10.30
68127;BMP180;54931;52.098;21.006;2022-09-01T02:06:45;100736.00;;;10.30
68127;BMP180;54931;52.098;21.006;2022-09-01T02:09:17;100735.00;;;10.36
68127;BMP180;54931;52.098;21.006;2022-09-01T02:11:44;100737.20;;;10.32
68127;BMP180;54931;52.098;21.006;2022-09-01T02:14:12;100735.00;;;10.30
68127;BMP180;54931;52.098;21.006;2022-09-01T02:16:41;100736.00;;;10.30
68127;BMP180;54931;52.098;21.006;2022-09-01T02:19:09;100730.40;;;10.22
68127;BMP180;54931;52.098;21.006;2022-09-01T02:21:38;100727.80;;;10.20
68127;BMP180;54931;52.098;21.006;2022-09-01T02:24:10;100726.80;;;10.20
68127;BMP180;54931;52.098;21.006;2022-09-01T02:26:43;100730.60;;;10.10
68127;BMP180;54931;52.098;21.006;2022-09-01T02:29:17;100732.20;;;10.00
68127;BMP180;54931;52.098;21.006;2022-09-01T02:31:51;100735.40;;;9.90
68127;BMP180;54931;52.098;21.006;2022-09-01T02:34:22;100736.80;;;9.90
68127;BMP180;54931;52.098;21.006;2022-09-01T02:36:53;100730.00;;;9.90
68127;BMP180;54931;52.098;21.006;2022-09-01T02:39:26;100727.80;;;9.80
68127;BMP180;54931;52.098;21.006;2022-09-01T02:41:55;100728.00;;;9.80
68127;BMP180;54931;52.098;21.006;2022-09-01T02:44:22;100735.20;;;9.80
68127;BMP180;54931;52.098;21.006;2022-09-01T02:46:49;100734.20;;;9.80
68127;BMP180;54931;52.098;21.006;2022-09-01T02:49:21;100736.80;;;9.70
68127;BMP180;54931;52.098;21.006;2022-09-01T02:51:52;100737.60;;;9.70
68127;BMP180;54931;52.098;21.006;2022-09-01T02:54:24;100739.80;;;9.70
68127;BMP180;54931;52.098;21.006;2022-09-01T02:56:52;100738.80;;;9.80
68127;BMP180;54931;52.098;21.006;2022-09-01T02:59:24;100738.60;;;9.74
68127;BMP180;54931;52.098;21.006;2022-09-01T03:01:53;100734.20;;;9.70
68127;BMP180;54931;52.098;21.006;2022-09-01T03:04:24;100730.40;;;9.60
68127;BMP180;54931;52.098;21.006;2022-09-01T03:06:52;100729.00;;;9.50
68127;BMP180;54931;52.098;21.006;2022-09-01T03:09:21;100729.80;;;9.52
68127;BMP180;54931;52.098;21.006;2022-09-01T03:11:51;100730.00;;;9.60
68127;BMP180;54931;52.098;21.006;2022-09-01T03:14:21;100729.40;;;9.60
68127;BMP180;54931;52.098;21.006;2022-09-01T03:16:50;100729.20;;;9.50
68127;BMP180;54931;52.098;21.006;2022-09-01T03:19:17;100735.40;;;9.40
68127;BMP180;54931;52.098;21.006;2022-09-01T03:21:46;100731.20;;;9.30
68127;BMP180;54931;52.098;21.006;2022-09-01T03:24:17;100733.20;;;9.32
68127;BMP180;54931;52.098;21.006;2022-09-01T03:26:46;100736.40;;;9.40
68127;BMP180;54931;52.098;21.006;2022-09-01T03:29:17;100740.60;;;9.40
68127;BMP180;54931;52.098;21.006;2022-09-01T03:31:45;100736.60;;;9.30
68127;BMP180;54931;52.098;21.006;2022-09-01T03:34:13;100737.40;;;9.20
68127;BMP180;54931;52.098;21.006;2022-09-01T03:36:42;100743.60;;;9.20
68127;BMP180;54931;52.098;21.006;2022-09-01T03:39:18;100743.80;;;9.20
68127;BMP180;54931;52.098;21.006;2022-09-01T03:41:45;100744.80;;;9.20
68127;BMP180;54931;52.098;21.006;2022-09-01T03:44:14;100745.80;;;9.10
68127;BMP180;54931;52.098;21.006;2022-09-01T03:46:42;100750.60;;;9.02
68127;BMP180;54931;52.098;21.006;2022-09-01T03:49:11;100748.00;;;9.00
68127;BMP180;54931;52.098;21.006;2022-09-01T03:51:43;100744.20;;;9.00
68127;BMP180;54931;52.098;21.006;2022-09-01T03:54:11;100744.20;;;8.92
68127;BMP180;54931;52.098;21.006;2022-09-01T03:56:39;100750.20;;;8.90
68127;BMP180;54931;52.098;21.006;2022-09-01T03:59:08;100745.00;;;9.00
68127;BMP180;54931;52.098;21.006;2022-09-01T04:01:43;100739.20;;;8.98
68127;BMP180;54931;52.098;21.006;2022-09-01T04:04:12;100738.60;;;9.00
68127;BMP180;54931;52.098;21.006;2022-09-01T04:06:43;100742.20;;;9.00
68127;BMP180;54931;52.098;21.006;2022-09-01T04:09:11;100743.40;;;8.90
68127;BMP180;54931;52.098;21.006;2022-09-01T04:11:39;100744.80;;;8.88
68127;BMP180;54931;52.098;21.006;2022-09-01T04:14:10;100749.80;;;8.90
68127;BMP180;54931;52.098;21.006;2022-09-01T04:16:37;100745.40;;;8.90
68127;BMP180;54931;52.098;21.006;2022-09-01T04:19:25;100745.40;;;9.00
68127;BMP180;54931;52.098;21.006;2022-09-01T04:21:57;100742.40;;;9.00
68127;BMP180;54931;52.098;21.006;2022-09-01T04:24:29;100743.60;;;9.00
68127;BMP180;54931;52.098;21.006;2022-09-01T04:27:01;100740.20;;;9.00
68127;BMP180;54931;52.098;21.006;2022-09-01T04:29:29;100738.20;;;9.10
68127;BMP180;54931;52.098;21.006;2022-09-01T04:32:02;100744.40;;;9.20
68127;BMP180;54931;52.098;21.006;2022-09-01T04:34:35;100745.00;;;9.30
68127;BMP180;54931;52.098;21.006;2022-09-01T04:37:13;100740.40;;;9.30
68127;BMP180;54931;52.098;21.006;2022-09-01T04:39:41;100745.40;;;9.30
68127;BMP180;54931;52.098;21.006;2022-09-01T04:42:14;100744.40;;;9.44
68127;BMP180;54931;52.098;21.006;2022-09-01T04:44:42;100741.80;;;9.54
68127;BMP180;54931;52.098;21.006;2022-09-01T04:47:11;100748.40;;;9.60
68127;BMP180;54931;52.098;21.006;2022-09-01T04:49:40;100745.20;;;9.70
68127;BMP180;54931;52.098;21.006;2022-09-01T04:52:09;100747.20;;;9.82
68127;BMP180;54931;52.098;21.006;2022-09-01T04:54:37;100746.20;;;10.28
68127;BMP180;54931;52.098;21.006;2022-09-01T04:57:05;100747.60;;;10.84
68127;BMP180;54931;52.098;21.006;2022-09-01T04:59:33;100746.20;;;11.34
68127;BMP180;54931;52.098;21.006;2022-09-01T05:02:01;100748.80;;;11.80
68127;BMP180;54931;52.098;21.006;2022-09-01T05:04:33;100745.60;;;12.20
68127;BMP180;54931;52.098;21.006;2022-09-01T05:07:04;100748.80;;;12.50
68127;BMP180;54931;52.098;21.006;2022-09-01T05:09:35;100743.60;;;12.84
68127;BMP180;54931;52.098;21.006;2022-09-01T05:12:04;100743.20;;;13.14
68127;BMP180;54931;52.098;21.006;2022-09-01T05:14:43;100746.20;;;13.46
68127;BMP180;54931;52.098;21.006;2022-09-01T05:17:14;100740.00;;;13.72
68127;BMP180;54931;52.098;21.006;2022-09-01T05:19:46;100743.20;;;14.00
68127;BMP180;54931;52.098;21.006;2022-09-01T05:22:15;100747.00;;;14.20
68127;BMP180;54931;52.098;21.006;2022-09-01T05:24:43;100746.80;;;14.58
68127;BMP180;54931;52.098;21.006;2022-09-01T05:27:11;100742.40;;;14.90
68127;BMP180;54931;52.098;21.006;2022-09-01T05:29:40;100745.40;;;15.10
68127;BMP180;54931;52.098;21.006;2022-09-01T05:32:08;100739.60;;;15.10
68127;BMP180;54931;52.098;21.006;2022-09-01T05:34:37;100745.00;;;15.20
68127;BMP180;54931;52.098;21.006;2022-09-01T05:37:07;100743.40;;;15.46
68127;BMP180;54931;52.098;21.006;2022-09-01T05:39:36;100747.00;;;15.68
68127;BMP180;54931;52.098;21.006;2022-09-01T05:42:06;100743.60;;;16.02
68127;BMP180;54931;52.098;21.006;2022-09-01T05:44:39;100745.40;;;16.10
68127;BMP180;54931;52.098;21.006;2022-09-01T05:47:10;100750.00;;;16.40
68127;BMP180;54931;52.098;21.006;2022-09-01T05:49:42;100751.80;;;16.74
68127;BMP180;54931;52.098;21.006;2022-09-01T05:52:10;100754.40;;;17.14
68127;BMP180;54931;52.098;21.006;2022-09-01T05:54:37;100753.20;;;17.46
68127;BMP180;54931;52.098;21.006;2022-09-01T05:57:04;100753.80;;;17.50
68127;BMP180;54931;52.098;21.006;2022-09-01T05:59:33;100757.60;;;17.42
68127;BMP180;54931;52.098;21.006;2022-09-01T06:02:01;100755.00;;;17.44
68127;BMP180;54931;52.098;21.006;2022-09-01T06:04:30;100759.20;;;17.78
68127;BMP180;54931;52.098;21.006;2022-09-01T06:06:57;100757.40;;;18.00
68127;BMP180;54931;52.098;21.006;2022-09-01T06:09:24;100754.80;;;18.10
68127;BMP180;54931;52.098;21.006;2022-09-01T06:11:52;100754.80;;;18.30
68127;BMP180;54931;52.098;21.006;2022-09-01T06:14:22;100754.40;;;18.40
68127;BMP180;54931;52.098;21.006;2022-09-01T06:16:50;100757.40;;;18.66
68127;BMP180;54931;52.098;21.006;2022-09-01T06:19:20;100760.60;;;18.50
68127;BMP180;54931;52.098;21.006;2022-09-01T06:21:47;100763.40;;;18.40
68127;BMP180;54931;52.098;21.006;2022-09-01T06:24:14;100759.00;;;18.60
68127;BMP180;54931;52.098;21.006;2022-09-01T06:26:44;100763.20;;;18.80
68127;BMP180;54931;52.098;21.006;2022-09-01T06:29:12;100765.20;;;18.90
68127;BMP180;54931;52.098;21.006;2022-09-01T06:31:41;100766.00;;;19.00
68127;BMP180;54931;52.098;21.006;2022-09-01T06:34:11;100765.00;;;19.10
68127;BMP180;54931;52.098;21.006;2022-09-01T06:36:46;100772.60;;;19.20
68127;BMP180;54931;52.098;21.006;2022-09-01T06:39:15;100773.20;;;19.20
68127;BMP180;54931;52.098;21.006;2022-09-01T06:41:47;100775.80;;;19.44
68127;BMP180;54931;52.098;21.006;2022-09-01T06:44:20;100771.80;;;19.50
68127;BMP180;54931;52.098;21.006;2022-09-01T06:46:51;100771.60;;;19.64
68127;BMP180;54931;52.098;21.006;2022-09-01T06:49:20;100772.80;;;19.70
68127;BMP180;54931;52.098;21.006;2022-09-01T06:51:49;100774.20;;;19.88
68127;BMP180;54931;52.098;21.006;2022-09-01T06:54:18;100768.40;;;20.20
68127;BMP180;54931;52.098;21.006;2022-09-01T06:56:47;100773.00;;;20.28
68127;BMP180;54931;52.098;21.006;2022-09-01T06:59:14;100773.40;;;20.44
68127;BMP180;54931;52.098;21.006;2022-09-01T07:01:41;100776.60;;;20.70
68127;BMP180;54931;52.098;21.006;2022-09-01T07:04:08;100775.40;;;20.60
68127;BMP180;54931;52.098;21.006;2022-09-01T07:06:39;100777.60;;;20.50
68127;BMP180;54931;52.098;21.006;2022-09-01T07:09:06;100779.00;;;20.76
68127;BMP180;54931;52.098;21.006;2022-09-01T07:11:34;100782.00;;;20.94
68127;BMP180;54931;52.098;21.006;2022-09-01T07:14:04;100783.00;;;21.18
68127;BMP180;54931;52.098;21.006;2022-09-01T07:16:36;100782.60;;;21.20
68127;BMP180;54931;52.098;21.006;2022-09-01T07:19:08;100778.40;;;21.20
68127;BMP180;54931;52.098;21.006;2022-09-01T07:21:38;100777.20;;;21.14
68127;BMP180;54931;52.098;21.006;2022-09-01T07:24:06;100774.00;;;21.40
68127;BMP180;54931;52.098;21.006;2022-09-01T07:26:35;100776.60;;;21.40
68127;BMP180;54931;52.098;21.006;2022-09-01T07:29:05;100782.40;;;21.40
68127;BMP180;54931;52.098;21.006;2022-09-01T07:31:37;100780.00;;;21.58
68127;BMP180;54931;52.098;21.006;2022-09-01T07:34:09;100784.80;;;21.64
68127;BMP180;54931;52.098;21.006;2022-09-01T07:36:40;100784.00;;;21.72
68127;BMP180;54931;52.098;21.006;2022-09-01T07:39:12;100783.80;;;21.60
68127;BMP180;54931;52.098;21.006;2022-09-01T07:41:40;100785.80;;;21.74
68127;BMP180;54931;52.098;21.006;2022-09-01T07:44:09;100789.60;;;21.86
68127;BMP180;54931;52.098;21.006;2022-09-01T07:46:40;100787.20;;;22.10
68127;BMP180;54931;52.098;21.006;2022-09-01T07:49:08;100787.40;;;22.20
68127;BMP180;54931;52.098;21.006;2022-09-01T07:51:37;100781.80;;;22.40
68127;BMP180;54931;52.098;21.006;2022-09-01T07:54:05;100786.80;;;22.50
68127;BMP180;54931;52.098;21.006;2022-09-01T07:56:33;100786.00;;;22.70
68127;BMP180;54931;52.098;21.006;2022-09-01T07:59:00;100793.20;;;22.80
68127;BMP180;54931;52.098;21.006;2022-09-01T08:01:28;100788.80;;;22.60
68127;BMP180;54931;52.098;21.006;2022-09-01T08:03:58;100790.00;;;22.36
68127;BMP180;54931;52.098;21.006;2022-09-01T08:06:28;100792.80;;;22.40
68127;BMP180;54931;52.098;21.006;2022-09-01T08:08:58;100793.60;;;22.30
68127;BMP180;54931;52.098;21.006;2022-09-01T08:11:29;100799.20;;;21.90
68127;BMP180;54931;52.098;21.006;2022-09-01T08:13:58;100798.80;;;21.38
68127;BMP180;54931;52.098;21.006;2022-09-01T08:16:28;100800.00;;;20.80
68127;BMP180;54931;52.098;21.006;2022-09-01T08:18:57;100796.20;;;20.50
68127;BMP180;54931;52.098;21.006;2022-09-01T08:21:25;100798.40;;;20.30
68127;BMP180;54931;52.098;21.006;2022-09-01T08:23:54;100795.80;;;20.30
68127;BMP180;54931;52.098;21.006;2022-09-01T08:26:25;100791.40;;;20.70
68127;BMP180;54931;52.098;21.006;2022-09-01T08:28:53;100793.40;;;21.00
68127;BMP180;54931;52.098;21.006;2022-09-01T08:31:23;100793.00;;;21.08
68127;BMP180;54931;52.098;21.006;2022-09-01T08:33:51;100789.60;;;21.56
68127;BMP180;54931;52.098;21.006;2022-09-01T08:36:19;100791.80;;;21.86
68127;BMP180;54931;52.098;21.006;2022-09-01T08:38:47;100793.20;;;22.20
68127;BMP180;54931;52.098;21.006;2022-09-01T08:41:42;100791.80;;;22.50
68127;BMP180;54931;52.098;21.006;2022-09-01T08:44:53;100790.80;;;22.60
68127;BMP180;54931;52.098;21.006;2022-09-01T08:47:24;100793.40;;;22.22
68127;BMP180;54931;52.098;21.006;2022-09-01T08:49:51;100793.00;;;22.02
68127;BMP180;54931;52.098;21.006;2022-09-01T08:52:38;100784.00;;;22.10
68127;BMP180;54931;52.098;21.006;2022-09-01T08:55:17;100792.00;;;22.10
68127;BMP180;54931;52.098;21.006;2022-09-01T08:57:47;100791.00;;;21.88
68127;BMP180;54931;52.098;21.006;2022-09-01T09:00:22;100789.20;;;21.44
68127;BMP180;54931;52.098;21.006;2022-09-01T09:05:48;100796.80;;;20.70
68127;BMP180;54931;52.098;21.006;2022-09-01T09:09:10;100795.40;;;20.30
68127;BMP180;54931;52.098;21.006;2022-09-01T09:17:21;100799.40;;;19.20
68127;BMP180;54931;52.098;21.006;2022-09-01T09:19:49;100791.60;;;19.32
68127;BMP180;54931;52.098;21.006;2022-09-01T09:22:19;100792.60;;;19.86
68127;BMP180;54931;52.098;21.006;2022-09-01T09:25:04;100789.60;;;19.98
68127;BMP180;54931;52.098;21.006;2022-09-01T09:27:40;100792.20;;;19.70
68127;BMP180;54931;52.098;21.006;2022-09-01T09:30:25;100786.00;;;19.40
68127;BMP180;54931;52.098;21.006;2022-09-01T09:32:57;100785.80;;;19.70
68127;BMP180;54931;52.098;21.006;2022-09-01T09:35:45;100782.20;;;20.00
68127;BMP180;54931;52.098;21.006;2022-09-01T09:41:15;100774.40;;;20.58
68127;BMP180;54931;52.098;21.006;2022-09-01T09:46:40;100780.40;;;21.80
68127;BMP180;54931;52.098;21.006;2022-09-01T09:49:31;100773.40;;;21.28
68127;BMP180;54931;52.098;21.006;2022-09-01T09:55:00;100770.60;;;20.88
68127;BMP180;54931;52.098;21.006;2022-09-01T09:57:31;100765.40;;;20.90
68127;BMP180;54931;52.098;21.006;2022-09-01T10:00:21;100763.80;;;21.10
68127;BMP180;54931;52.098;21.006;2022-09-01T10:03:15;100765.20;;;21.30
68127;BMP180;54931;52.098;21.006;2022-09-01T10:05:48;100753.60;;;21.54
68127;BMP180;54931;52.098;21.006;2022-09-01T10:11:05;100761.20;;;21.80
68127;BMP180;54931;52.098;21.006;2022-09-01T10:13:34;100758.20;;;21.94
68127;BMP180;54931;52.098;21.006;2022-09-01T10:16:15;100753.60;;;21.90
68127;BMP180;54931;52.098;21.006;2022-09-01T10:18:46;100757.00;;;21.68
68127;BMP180;54931;52.098;21.006;2022-09-01T10:21:22;100751.80;;;21.50
68127;BMP180;54931;52.098;21.006;2022-09-01T10:23:51;100753.80;;;21.44
68127;BMP180;54931;52.098;21.006;2022-09-01T10:26:28;100756.40;;;21.38
68127;BMP180;54931;52.098;21.006;2022-09-01T10:29:11;100760.40;;;21.30
68127;BMP180;54931;52.098;21.006;2022-09-01T10:31:41;100756.60;;;21.24
68127;BMP180;54931;52.098;21.006;2022-09-01T10:34:15;100756.60;;;21.44
68127;BMP180;54931;52.098;21.006;2022-09-01T10:36:46;100753.40;;;21.98
68127;BMP180;54931;52.098;21.006;2022-09-01T10:39:17;100757.40;;;22.30
68127;BMP180;54931;52.098;21.006;2022-09-01T10:41:50;100751.80;;;22.76
68127;BMP180;54931;52.098;21.006;2022-09-01T10:44:26;100752.80;;;22.80
68127;BMP180;54931;52.098;21.006;2022-09-01T10:47:28;100746.00;;;23.00
68127;BMP180;54931;52.098;21.006;2022-09-01T10:53:01;100746.00;;;23.24
68127;BMP180;54931;52.098;21.006;2022-09-01T10:56:02;100748.80;;;22.76
68127;BMP180;54931;52.098;21.006;2022-09-01T11:10:08;100745.40;;;22.20
68127;BMP180;54931;52.098;21.006;2022-09-01T11:18:00;100747.80;;;21.70
68127;BMP180;54931;52.098;21.006;2022-09-01T11:20:38;100743.20;;;21.54
68127;BMP180;54931;52.098;21.006;2022-09-01T11:23:29;100741.60;;;21.42
68127;BMP180;54931;52.098;21.006;2022-09-01T11:29:03;100748.00;;;21.80
68127;BMP180;54931;52.098;21.006;2022-09-01T11:31:42;100749.80;;;21.72
68127;BMP180;54931;52.098;21.006;2022-09-01T11:34:13;100754.80;;;21.70
68127;BMP180;54931;52.098;21.006;2022-09-01T11:36:52;100754.80;;;21.70
68127;BMP180;54931;52.098;21.006;2022-09-01T11:39:40;100750.40;;;21.50
68127;BMP180;54931;52.098;21.006;2022-09-01T11:45:04;100756.20;;;21.68
68127;BMP180;54931;52.098;21.006;2022-09-01T11:47:40;100748.20;;;21.62
68127;BMP180;54931;52.098;21.006;2022-09-01T11:50:22;100745.60;;;21.70
68127;BMP180;54931;52.098;21.006;2022-09-01T11:53:12;100745.40;;;21.82
68127;BMP180;54931;52.098;21.006;2022-09-01T11:55:49;100748.80;;;21.80
68127;BMP180;54931;52.098;21.006;2022-09-01T12:01:15;100748.20;;;21.50
68127;BMP180;54931;52.098;21.006;2022-09-01T12:03:44;100750.00;;;21.50
68127;BMP180;54931;52.098;21.006;2022-09-01T12:06:22;100744.60;;;21.46
68127;BMP180;54931;52.098;21.006;2022-09-01T12:08:56;100750.80;;;21.80
68127;BMP180;54931;52.098;21.006;2022-09-01T12:11:28;100746.80;;;22.00
68127;BMP180;54931;52.098;21.006;2022-09-01T12:14:09;100745.20;;;22.00
68127;BMP180;54931;52.098;21.006;2022-09-01T12:16:41;100748.80;;;22.00
68127;BMP180;54931;52.098;21.006;2022-09-01T12:19:24;100749.80;;;21.82
68127;BMP180;54931;52.098;21.006;2022-09-01T12:22:13;100750.60;;;21.50
68127;BMP180;54931;52.098;21.006;2022-09-01T12:24:47;100752.20;;;21.30
68127;BMP180;54931;52.098;21.006;2022-09-01T12:27:15;100745.40;;;21.10
68127;BMP180;54931;52.098;21.006;2022-09-01T12:29:44;100738.00;;;21.20
68127;BMP180;54931;52.098;21.006;2022-09-01T12:32:14;100740.80;;;21.40
68127;BMP180;54931;52.098;21.006;2022-09-01T12:35:00;100735.60;;;21.30
68127;BMP180;54931;52.098;21.006;2022-09-01T12:37:27;100738.60;;;21.30
68127;BMP180;54931;52.098;21.006;2022-09-01T12:39:59;100734.60;;;21.30
68127;BMP180;54931;52.098;21.006;2022-09-01T12:42:29;100730.40;;;21.40
68127;BMP180;54931;52.098;21.006;2022-09-01T12:45:02;100731.20;;;21.50
68127;BMP180;54931;52.098;21.006;2022-09-01T12:50:05;100726.00;;;21.62
68127;BMP180;54931;52.098;21.006;2022-09-01T12:52:53;100721.40;;;21.80
68127;BMP180;54931;52.098;21.006;2022-09-01T12:55:30;100722.00;;;21.80
68127;BMP180;54931;52.098;21.006;2022-09-01T12:58:09;100712.00;;;21.60
68127;BMP180;54931;52.098;21.006;2022-09-01T13:03:25;100722.20;;;21.90
68127;BMP180;54931;52.098;21.006;2022-09-01T13:05:59;100721.00;;;21.78
68127;BMP180;54931;52.098;21.006;2022-09-01T13:08:33;100718.20;;;21.62
68127;BMP180;54931;52.098;21.006;2022-09-01T13:11:17;100714.00;;;21.60
68127;BMP180;54931;52.098;21.006;2022-09-01T13:13:44;100715.20;;;21.50
68127;BMP180;54931;52.098;21.006;2022-09-01T13:16:12;100716.20;;;21.60
68127;BMP180;54931;52.098;21.006;2022-09-01T13:18:42;100718.40;;;21.60
68127;BMP180;54931;52.098;21.006;2022-09-01T13:21:12;100716.40;;;21.60
68127;BMP180;54931;52.098;21.006;2022-09-01T13:23:39;100712.80;;;21.60
68127;BMP180;54931;52.098;21.006;2022-09-01T13:26:07;100707.80;;;21.60
68127;BMP180;54931;52.098;21.006;2022-09-01T13:28:34;100705.80;;;21.70
68127;BMP180;54931;52.098;21.006;2022-09-01T13:31:04;100705.80;;;21.70
68127;BMP180;54931;52.098;21.006;2022-09-01T13:33:34;100707.00;;;21.70
68127;BMP180;54931;52.098;21.006;2022-09-01T13:36:04;100706.60;;;21.80
68127;BMP180;54931;52.098;21.006;2022-09-01T13:38:32;100708.60;;;21.94
68127;BMP180;54931;52.098;21.006;2022-09-01T13:40:59;100702.60;;;22.00
68127;BMP180;54931;52.098;21.006;2022-09-01T13:43:28;100705.40;;;22.10
68127;BMP180;54931;52.098;21.006;2022-09-01T13:45:57;100708.80;;;22.18
68127;BMP180;54931;52.098;21.006;2022-09-01T13:48:25;100706.40;;;22.18
68127;BMP180;54931;52.098;21.006;2022-09-01T13:50:54;100708.00;;;22.30
68127;BMP180;54931;52.098;21.006;2022-09-01T13:53:23;100711.20;;;22.40
68127;BMP180;54931;52.098;21.006;2022-09-01T13:55:51;100710.80;;;22.20
68127;BMP180;54931;52.098;21.006;2022-09-01T13:58:18;100716.00;;;21.94
68127;BMP180;54931;52.098;21.006;2022-09-01T14:00:47;100712.60;;;21.60
68127;BMP180;54931;52.098;21.006;2022-09-01T14:03:22;100715.60;;;21.20
68127;BMP180;54931;52.098;21.006;2022-09-01T14:05:49;100716.00;;;20.88
68127;BMP180;54931;52.098;21.006;2022-09-01T14:08:20;100716.00;;;20.54
68127;BMP180;54931;52.098;21.006;2022-09-01T14:10:50;100720.80;;;20.28
68127;BMP180;54931;52.098;21.006;2022-09-01T14:13:22;100724.40;;;20.00
68127;BMP180;54931;52.098;21.006;2022-09-01T14:15:50;100721.40;;;19.80
68127;BMP180;54931;52.098;21.006;2022-09-01T14:18:20;100724.00;;;19.76
68127;BMP180;54931;52.098;21.006;2022-09-01T14:20:50;100722.60;;;19.70
68127;BMP180;54931;52.098;21.006;2022-09-01T14:23:19;100719.60;;;19.70
68127;BMP180;54931;52.098;21.006;2022-09-01T14:25:50;100720.40;;;19.78
68127;BMP180;54931;52.098;21.006;2022-09-01T14:28:20;100713.80;;;20.10
68127;BMP180;54931;52.098;21.006;2022-09-01T14:30:50;100713.00;;;20.40
68127;BMP180;54931;52.098;21.006;2022-09-01T14:33:18;100709.40;;;20.50
68127;BMP180;54931;52.098;21.006;2022-09-01T14:35:50;100709.60;;;20.60
68127;BMP180;54931;52.098;21.006;2022-09-01T14:38:18;100715.40;;;20.84
68127;BMP180;54931;52.098;21.006;2022-09-01T14:40:47;100719.40;;;20.90
68127;BMP180;54931;52.098;21.006;2022-09-01T14:43:14;100720.40;;;20.80
68127;BMP180;54931;52.098;21.006;2022-09-01T14:45:43;100722.20;;;20.70
68127;BMP180;54931;52.098;21.006;2022-09-01T14:48:18;100726.20;;;20.50
68127;BMP180;54931;52.098;21.006;2022-09-01T14:50:47;100727.00;;;20.38
68127;BMP180;54931;52.098;21.006;2022-09-01T14:53:16;100727.60;;;20.20
68127;BMP180;54931;52.098;21.006;2022-09-01T14:55:46;100725.40;;;20.20
68127;BMP180;54931;52.098;21.006;2022-09-01T14:58:14;100718.60;;;20.20
68127;BMP180;54931;52.098;21.006;2022-09-01T15:00:42;100721.60;;;20.10
68127;BMP180;54931;52.098;21.006;2022-09-01T15:03:10;100722.00;;;20.00
68127;BMP180;54931;52.098;21.006;2022-09-01T15:05:38;100724.00;;;19.84
68127;BMP180;54931;52.098;21.006;2022-09-01T15:08:06;100730.00;;;19.70